Sapucaia, Brazil
Current Conditions -  °F | °C
As of 9:00 AM on Thursday 23 Oct 2014 (Local Time) from SBGL Reporting Station
Broken Clouds Broken Clouds  
Wind Chill: 70°   Ceiling: 5000
Heat Index: 70°   Visibility: 6mi
Dew Point: 61°   Wind: 3mph
Humidity: 73%   Direction: 340°NNW
Pressure: 30.18"   Gusts: NA
Location:  22°S, 42.91°W
Report Text: SBGL 231100Z 34003KT 9999 SCT030 BKN050 21/16 Q1022
Loading
Personal Weather Stations






























Interactive Weather Map
Tropical Storm Tracking
New forecast layout! Learn more

10-Day Weather Forecast

Advertisements
Track Severe Weather on mobile